sensor_id;sensor_type;location;lat;lon;timestamp;P1;durP1;ratioP1;P2;durP2;ratioP2
6651;SDS011;3362;50.892;10.692;2022-08-19T00:02:21;22.70;;;14.07;;
6651;SDS011;3362;50.892;10.692;2022-08-19T00:04:48;25.85;;;15.10;;
6651;SDS011;3362;50.892;10.692;2022-08-19T00:07:17;24.65;;;13.75;;
6651;SDS011;3362;50.892;10.692;2022-08-19T00:09:44;22.45;;;13.35;;
6651;SDS011;3362;50.892;10.692;2022-08-19T00:12:11;24.80;;;13.20;;
6651;SDS011;3362;50.892;10.692;2022-08-19T00:14:37;22.45;;;12.20;;
6651;SDS011;3362;50.892;10.692;2022-08-19T00:17:06;21.02;;;11.80;;
6651;SDS011;3362;50.892;10.692;2022-08-19T00:19:33;20.55;;;12.90;;
6651;SDS011;3362;50.892;10.692;2022-08-19T00:21:59;19.88;;;11.57;;
6651;SDS011;3362;50.892;10.692;2022-08-19T00:24:27;17.63;;;11.68;;
6651;SDS011;3362;50.892;10.692;2022-08-19T00:26:55;21.80;;;12.52;;
6651;SDS011;3362;50.892;10.692;2022-08-19T00:29:22;21.20;;;12.07;;
6651;SDS011;3362;50.892;10.692;2022-08-19T00:31:48;18.27;;;10.40;;
6651;SDS011;3362;50.892;10.692;2022-08-19T00:34:17;19.48;;;11.70;;
6651;SDS011;3362;50.892;10.692;2022-08-19T00:36:44;20.65;;;12.05;;
6651;SDS011;3362;50.892;10.692;2022-08-19T00:39:11;20.02;;;12.18;;
6651;SDS011;3362;50.892;10.692;2022-08-19T00:41:37;17.88;;;11.52;;
6651;SDS011;3362;50.892;10.692;2022-08-19T00:44:07;17.17;;;10.38;;
6651;SDS011;3362;50.892;10.692;2022-08-19T00:46:35;17.52;;;10.52;;
6651;SDS011;3362;50.892;10.692;2022-08-19T00:49:02;18.85;;;11.32;;
6651;SDS011;3362;50.892;10.692;2022-08-19T00:51:30;16.88;;;11.25;;
6651;SDS011;3362;50.892;10.692;2022-08-19T00:53:57;16.88;;;10.90;;
6651;SDS011;3362;50.892;10.692;2022-08-19T00:56:25;17.65;;;11.27;;
6651;SDS011;3362;50.892;10.692;2022-08-19T00:58:52;17.38;;;10.13;;
6651;SDS011;3362;50.892;10.692;2022-08-19T01:01:21;17.42;;;10.38;;
6651;SDS011;3362;50.892;10.692;2022-08-19T01:03:48;16.98;;;10.75;;
6651;SDS011;3362;50.892;10.692;2022-08-19T01:06:14;22.13;;;11.95;;
6651;SDS011;3362;50.892;10.692;2022-08-19T01:08:40;19.70;;;11.63;;
6651;SDS011;3362;50.892;10.692;2022-08-19T01:11:06;20.73;;;12.15;;
6651;SDS011;3362;50.892;10.692;2022-08-19T01:13:33;19.00;;;11.02;;
6651;SDS011;3362;50.892;10.692;2022-08-19T01:16:00;19.40;;;11.90;;
6651;SDS011;3362;50.892;10.692;2022-08-19T01:18:28;17.98;;;11.05;;
6651;SDS011;3362;50.892;10.692;2022-08-19T01:20:56;17.85;;;10.38;;
6651;SDS011;3362;50.892;10.692;2022-08-19T01:23:25;17.13;;;10.50;;
6651;SDS011;3362;50.892;10.692;2022-08-19T01:26:08;16.98;;;10.38;;
6651;SDS011;3362;50.892;10.692;2022-08-19T01:28:35;15.13;;;10.00;;
6651;SDS011;3362;50.892;10.692;2022-08-19T01:31:02;16.60;;;11.10;;
6651;SDS011;3362;50.892;10.692;2022-08-19T01:33:28;19.65;;;11.75;;
6651;SDS011;3362;50.892;10.692;2022-08-19T01:36:02;17.17;;;11.27;;
6651;SDS011;3362;50.892;10.692;2022-08-19T01:38:34;19.55;;;11.00;;
6651;SDS011;3362;50.892;10.692;2022-08-19T01:41:01;24.20;;;11.23;;
6651;SDS011;3362;50.892;10.692;2022-08-19T01:43:27;18.70;;;11.20;;
6651;SDS011;3362;50.892;10.692;2022-08-19T01:45:54;15.93;;;10.57;;
6651;SDS011;3362;50.892;10.692;2022-08-19T01:48:20;16.73;;;10.98;;
6651;SDS011;3362;50.892;10.692;2022-08-19T01:50:46;17.02;;;10.57;;
6651;SDS011;3362;50.892;10.692;2022-08-19T01:53:13;16.05;;;11.15;;
6651;SDS011;3362;50.892;10.692;2022-08-19T01:55:42;16.92;;;10.52;;
6651;SDS011;3362;50.892;10.692;2022-08-19T01:58:09;16.55;;;10.80;;
6651;SDS011;3362;50.892;10.692;2022-08-19T02:00:36;24.85;;;10.13;;
6651;SDS011;3362;50.892;10.692;2022-08-19T02:03:03;22.00;;;11.25;;
6651;SDS011;3362;50.892;10.692;2022-08-19T02:05:29;17.95;;;11.30;;
6651;SDS011;3362;50.892;10.692;2022-08-19T02:07:55;19.70;;;11.73;;
6651;SDS011;3362;50.892;10.692;2022-08-19T02:10:22;22.15;;;13.55;;
6651;SDS011;3362;50.892;10.692;2022-08-19T02:12:50;24.63;;;13.35;;
6651;SDS011;3362;50.892;10.692;2022-08-19T02:15:17;27.63;;;15.35;;
6651;SDS011;3362;50.892;10.692;2022-08-19T02:17:44;27.58;;;14.48;;
6651;SDS011;3362;50.892;10.692;2022-08-19T02:20:11;24.00;;;14.80;;
6651;SDS011;3362;50.892;10.692;2022-08-19T02:22:38;23.40;;;15.18;;
6651;SDS011;3362;50.892;10.692;2022-08-19T02:25:06;24.00;;;14.85;;
6651;SDS011;3362;50.892;10.692;2022-08-19T02:27:33;24.70;;;15.20;;
6651;SDS011;3362;50.892;10.692;2022-08-19T02:30:00;28.63;;;16.00;;
6651;SDS011;3362;50.892;10.692;2022-08-19T02:32:26;29.88;;;15.05;;
6651;SDS011;3362;50.892;10.692;2022-08-19T02:34:55;21.58;;;14.20;;
6651;SDS011;3362;50.892;10.692;2022-08-19T02:37:21;32.53;;;16.00;;
6651;SDS011;3362;50.892;10.692;2022-08-19T02:40:05;26.27;;;16.15;;
6651;SDS011;3362;50.892;10.692;2022-08-19T02:42:32;27.45;;;15.43;;
6651;SDS011;3362;50.892;10.692;2022-08-19T02:44:58;28.90;;;16.00;;
6651;SDS011;3362;50.892;10.692;2022-08-19T02:47:26;29.83;;;15.93;;
6651;SDS011;3362;50.892;10.692;2022-08-19T02:49:52;25.90;;;14.45;;
6651;SDS011;3362;50.892;10.692;2022-08-19T02:52:19;26.40;;;14.13;;
6651;SDS011;3362;50.892;10.692;2022-08-19T02:54:45;26.48;;;14.63;;
6651;SDS011;3362;50.892;10.692;2022-08-19T02:57:11;21.33;;;12.68;;
6651;SDS011;3362;50.892;10.692;2022-08-19T02:59:37;18.17;;;12.85;;
6651;SDS011;3362;50.892;10.692;2022-08-19T03:02:04;16.63;;;12.05;;
6651;SDS011;3362;50.892;10.692;2022-08-19T03:04:32;20.80;;;12.52;;
6651;SDS011;3362;50.892;10.692;2022-08-19T03:06:58;18.38;;;12.35;;
6651;SDS011;3362;50.892;10.692;2022-08-19T03:09:24;22.85;;;13.48;;
6651;SDS011;3362;50.892;10.692;2022-08-19T03:11:50;18.58;;;12.00;;
6651;SDS011;3362;50.892;10.692;2022-08-19T03:14:17;20.88;;;12.43;;
6651;SDS011;3362;50.892;10.692;2022-08-19T03:16:44;22.67;;;12.80;;
6651;SDS011;3362;50.892;10.692;2022-08-19T03:19:11;26.27;;;12.98;;
6651;SDS011;3362;50.892;10.692;2022-08-19T03:21:39;20.27;;;13.48;;
6651;SDS011;3362;50.892;10.692;2022-08-19T03:24:07;21.15;;;12.68;;
6651;SDS011;3362;50.892;10.692;2022-08-19T03:26:34;20.98;;;10.85;;
6651;SDS011;3362;50.892;10.692;2022-08-19T03:29:01;19.80;;;12.32;;
6651;SDS011;3362;50.892;10.692;2022-08-19T03:31:27;22.63;;;12.13;;
6651;SDS011;3362;50.892;10.692;2022-08-19T03:33:54;18.42;;;12.27;;
6651;SDS011;3362;50.892;10.692;2022-08-19T03:36:21;21.25;;;12.80;;
6651;SDS011;3362;50.892;10.692;2022-08-19T03:38:50;21.27;;;13.07;;
6651;SDS011;3362;50.892;10.692;2022-08-19T03:41:17;19.98;;;12.32;;
6651;SDS011;3362;50.892;10.692;2022-08-19T03:43:44;18.73;;;12.02;;
6651;SDS011;3362;50.892;10.692;2022-08-19T03:46:13;18.40;;;11.52;;
6651;SDS011;3362;50.892;10.692;2022-08-19T03:48:40;24.05;;;13.05;;
6651;SDS011;3362;50.892;10.692;2022-08-19T03:51:07;18.77;;;11.90;;
6651;SDS011;3362;50.892;10.692;2022-08-19T03:53:33;18.67;;;12.43;;
6651;SDS011;3362;50.892;10.692;2022-08-19T03:56:02;21.17;;;12.50;;
6651;SDS011;3362;50.892;10.692;2022-08-19T03:58:29;22.05;;;12.70;;
6651;SDS011;3362;50.892;10.692;2022-08-19T04:00:55;21.42;;;12.88;;
6651;SDS011;3362;50.892;10.692;2022-08-19T04:03:22;16.67;;;12.23;;
6651;SDS011;3362;50.892;10.692;2022-08-19T04:05:49;18.17;;;12.13;;
6651;SDS011;3362;50.892;10.692;2022-08-19T04:08:15;20.92;;;12.18;;
6651;SDS011;3362;50.892;10.692;2022-08-19T04:10:45;20.25;;;12.68;;
6651;SDS011;3362;50.892;10.692;2022-08-19T04:13:13;18.33;;;11.95;;
6651;SDS011;3362;50.892;10.692;2022-08-19T04:15:39;21.00;;;12.77;;
6651;SDS011;3362;50.892;10.692;2022-08-19T04:18:07;20.50;;;13.45;;
6651;SDS011;3362;50.892;10.692;2022-08-19T04:20:37;18.65;;;12.82;;
6651;SDS011;3362;50.892;10.692;2022-08-19T04:23:03;23.10;;;13.35;;
6651;SDS011;3362;50.892;10.692;2022-08-19T04:25:34;19.20;;;13.60;;
6651;SDS011;3362;50.892;10.692;2022-08-19T04:28:00;17.90;;;12.98;;
6651;SDS011;3362;50.892;10.692;2022-08-19T04:30:27;19.13;;;12.35;;
6651;SDS011;3362;50.892;10.692;2022-08-19T04:32:53;21.17;;;13.68;;
6651;SDS011;3362;50.892;10.692;2022-08-19T04:35:20;18.77;;;13.32;;
6651;SDS011;3362;50.892;10.692;2022-08-19T04:37:46;24.58;;;14.20;;
6651;SDS011;3362;50.892;10.692;2022-08-19T04:40:12;21.73;;;12.98;;
6651;SDS011;3362;50.892;10.692;2022-08-19T04:42:56;23.00;;;14.07;;
6651;SDS011;3362;50.892;10.692;2022-08-19T04:45:23;21.45;;;13.45;;
6651;SDS011;3362;50.892;10.692;2022-08-19T04:47:54;20.77;;;13.05;;
6651;SDS011;3362;50.892;10.692;2022-08-19T04:50:21;24.88;;;13.70;;
6651;SDS011;3362;50.892;10.692;2022-08-19T04:52:47;20.45;;;13.10;;
6651;SDS011;3362;50.892;10.692;2022-08-19T04:55:15;21.25;;;13.20;;
6651;SDS011;3362;50.892;10.692;2022-08-19T04:57:42;25.98;;;13.82;;
6651;SDS011;3362;50.892;10.692;2022-08-19T05:00:09;30.13;;;14.40;;
6651;SDS011;3362;50.892;10.692;2022-08-19T05:02:35;23.20;;;13.90;;
6651;SDS011;3362;50.892;10.692;2022-08-19T05:05:03;22.52;;;15.07;;
6651;SDS011;3362;50.892;10.692;2022-08-19T05:07:31;25.08;;;14.02;;
6651;SDS011;3362;50.892;10.692;2022-08-19T05:09:57;20.58;;;14.40;;
6651;SDS011;3362;50.892;10.692;2022-08-19T05:12:23;19.15;;;13.40;;
6651;SDS011;3362;50.892;10.692;2022-08-19T05:14:50;20.20;;;14.18;;
6651;SDS011;3362;50.892;10.692;2022-08-19T05:17:17;22.40;;;15.48;;
6651;SDS011;3362;50.892;10.692;2022-08-19T05:19:43;19.92;;;13.25;;
6651;SDS011;3362;50.892;10.692;2022-08-19T05:22:28;20.30;;;14.02;;
6651;SDS011;3362;50.892;10.692;2022-08-19T05:25:01;22.70;;;13.65;;
6651;SDS011;3362;50.892;10.692;2022-08-19T05:27:27;24.27;;;14.02;;
6651;SDS011;3362;50.892;10.692;2022-08-19T05:29:53;18.92;;;13.30;;
6651;SDS011;3362;50.892;10.692;2022-08-19T05:32:20;22.30;;;12.85;;
6651;SDS011;3362;50.892;10.692;2022-08-19T05:34:46;21.05;;;13.90;;
6651;SDS011;3362;50.892;10.692;2022-08-19T05:37:12;19.27;;;14.15;;
6651;SDS011;3362;50.892;10.692;2022-08-19T05:39:40;19.15;;;14.05;;
6651;SDS011;3362;50.892;10.692;2022-08-19T05:42:07;16.33;;;11.90;;
6651;SDS011;3362;50.892;10.692;2022-08-19T05:44:35;19.45;;;12.18;;
6651;SDS011;3362;50.892;10.692;2022-08-19T05:47:02;19.65;;;12.50;;
6651;SDS011;3362;50.892;10.692;2022-08-19T05:49:30;19.33;;;12.13;;
6651;SDS011;3362;50.892;10.692;2022-08-19T05:51:56;16.55;;;13.10;;
6651;SDS011;3362;50.892;10.692;2022-08-19T05:54:24;17.17;;;11.68;;
6651;SDS011;3362;50.892;10.692;2022-08-19T05:56:53;15.80;;;11.88;;
6651;SDS011;3362;50.892;10.692;2022-08-19T05:59:19;19.35;;;11.15;;
6651;SDS011;3362;50.892;10.692;2022-08-19T06:01:46;16.85;;;11.45;;
6651;SDS011;3362;50.892;10.692;2022-08-19T06:04:15;19.42;;;11.00;;
6651;SDS011;3362;50.892;10.692;2022-08-19T06:06:43;17.27;;;10.55;;
6651;SDS011;3362;50.892;10.692;2022-08-19T06:09:11;15.32;;;10.15;;
6651;SDS011;3362;50.892;10.692;2022-08-19T06:11:38;21.20;;;11.25;;
6651;SDS011;3362;50.892;10.692;2022-08-19T06:14:07;17.40;;;10.15;;
6651;SDS011;3362;50.892;10.692;2022-08-19T06:16:33;13.27;;;10.15;;
6651;SDS011;3362;50.892;10.692;2022-08-19T06:19:01;14.63;;;9.50;;
6651;SDS011;3362;50.892;10.692;2022-08-19T06:21:28;12.82;;;10.63;;
6651;SDS011;3362;50.892;10.692;2022-08-19T06:23:55;15.88;;;8.95;;
6651;SDS011;3362;50.892;10.692;2022-08-19T06:26:21;15.20;;;9.43;;
6651;SDS011;3362;50.892;10.692;2022-08-19T06:28:48;15.07;;;10.35;;
6651;SDS011;3362;50.892;10.692;2022-08-19T06:31:17;14.52;;;9.18;;
6651;SDS011;3362;50.892;10.692;2022-08-19T06:33:45;15.73;;;8.93;;
6651;SDS011;3362;50.892;10.692;2022-08-19T06:36:18;15.07;;;9.77;;
6651;SDS011;3362;50.892;10.692;2022-08-19T06:38:44;15.68;;;9.48;;
6651;SDS011;3362;50.892;10.692;2022-08-19T06:41:11;14.98;;;8.95;;
6651;SDS011;3362;50.892;10.692;2022-08-19T06:43:37;16.02;;;11.02;;
6651;SDS011;3362;50.892;10.692;2022-08-19T06:46:03;16.20;;;9.73;;
6651;SDS011;3362;50.892;10.692;2022-08-19T06:48:34;13.48;;;9.38;;
6651;SDS011;3362;50.892;10.692;2022-08-19T06:51:01;13.85;;;9.45;;
6651;SDS011;3362;50.892;10.692;2022-08-19T06:53:28;14.20;;;9.82;;
6651;SDS011;3362;50.892;10.692;2022-08-19T06:55:54;14.57;;;8.95;;
6651;SDS011;3362;50.892;10.692;2022-08-19T06:58:25;14.77;;;9.00;;
6651;SDS011;3362;50.892;10.692;2022-08-19T07:00:51;15.48;;;10.13;;
6651;SDS011;3362;50.892;10.692;2022-08-19T07:03:17;13.95;;;10.00;;
6651;SDS011;3362;50.892;10.692;2022-08-19T07:05:45;13.88;;;9.90;;
6651;SDS011;3362;50.892;10.692;2022-08-19T07:08:11;18.50;;;9.30;;
6651;SDS011;3362;50.892;10.692;2022-08-19T07:10:37;15.63;;;9.48;;
6651;SDS011;3362;50.892;10.692;2022-08-19T07:13:07;14.63;;;9.05;;
6651;SDS011;3362;50.892;10.692;2022-08-19T07:15:35;12.85;;;8.05;;
6651;SDS011;3362;50.892;10.692;2022-08-19T07:18:02;10.55;;;7.97;;
6651;SDS011;3362;50.892;10.692;2022-08-19T07:20:28;10.05;;;7.78;;
6651;SDS011;3362;50.892;10.692;2022-08-19T07:22:56;13.95;;;7.95;;
6651;SDS011;3362;50.892;10.692;2022-08-19T07:25:22;13.02;;;7.63;;
6651;SDS011;3362;50.892;10.692;2022-08-19T07:27:48;10.75;;;6.55;;
6651;SDS011;3362;50.892;10.692;2022-08-19T07:30:15;8.40;;;6.32;;
6651;SDS011;3362;50.892;10.692;2022-08-19T07:32:41;14.48;;;7.03;;
6651;SDS011;3362;50.892;10.692;2022-08-19T07:35:08;8.65;;;5.78;;
6651;SDS011;3362;50.892;10.692;2022-08-19T07:37:35;10.30;;;5.82;;
6651;SDS011;3362;50.892;10.692;2022-08-19T07:40:04;10.63;;;4.75;;
6651;SDS011;3362;50.892;10.692;2022-08-19T07:42:30;6.75;;;4.63;;
6651;SDS011;3362;50.892;10.692;2022-08-19T07:44:56;9.75;;;4.93;;
6651;SDS011;3362;50.892;10.692;2022-08-19T07:47:23;7.53;;;4.25;;
6651;SDS011;3362;50.892;10.692;2022-08-19T07:49:49;7.22;;;4.57;;
6651;SDS011;3362;50.892;10.692;2022-08-19T07:52:16;6.07;;;4.57;;
6651;SDS011;3362;50.892;10.692;2022-08-19T07:54:42;4.78;;;4.20;;
6651;SDS011;3362;50.892;10.692;2022-08-19T07:57:10;4.60;;;3.85;;
6651;SDS011;3362;50.892;10.692;2022-08-19T07:59:37;6.90;;;4.57;;
6651;SDS011;3362;50.892;10.692;2022-08-19T08:02:03;12.10;;;4.90;;
6651;SDS011;3362;50.892;10.692;2022-08-19T08:04:30;5.20;;;4.03;;
6651;SDS011;3362;50.892;10.692;2022-08-19T08:07:14;4.32;;;3.92;;
6651;SDS011;3362;50.892;10.692;2022-08-19T08:09:58;5.50;;;3.67;;
6651;SDS011;3362;50.892;10.692;2022-08-19T08:12:27;7.88;;;3.95;;
6651;SDS011;3362;50.892;10.692;2022-08-19T08:14:55;4.95;;;3.10;;
6651;SDS011;3362;50.892;10.692;2022-08-19T08:17:24;3.83;;;3.30;;
6651;SDS011;3362;50.892;10.692;2022-08-19T08:19:50;5.78;;;3.97;;
6651;SDS011;3362;50.892;10.692;2022-08-19T08:22:18;6.40;;;3.75;;
6651;SDS011;3362;50.892;10.692;2022-08-19T08:25:00;3.83;;;3.20;;
6651;SDS011;3362;50.892;10.692;2022-08-19T08:27:28;3.78;;;3.00;;
6651;SDS011;3362;50.892;10.692;2022-08-19T08:29:54;4.45;;;3.17;;
6651;SDS011;3362;50.892;10.692;2022-08-19T08:32:20;5.00;;;3.75;;
6651;SDS011;3362;50.892;10.692;2022-08-19T08:34:46;5.18;;;2.78;;
6651;SDS011;3362;50.892;10.692;2022-08-19T08:37:13;5.45;;;3.58;;
6651;SDS011;3362;50.892;10.692;2022-08-19T08:39:39;5.88;;;3.58;;
6651;SDS011;3362;50.892;10.692;2022-08-19T08:42:07;7.05;;;3.40;;
6651;SDS011;3362;50.892;10.692;2022-08-19T08:44:38;3.80;;;2.63;;
6651;SDS011;3362;50.892;10.692;2022-08-19T08:47:09;3.90;;;2.55;;
6651;SDS011;3362;50.892;10.692;2022-08-19T08:49:40;4.50;;;3.15;;
6651;SDS011;3362;50.892;10.692;2022-08-19T08:52:09;3.45;;;2.85;;
6651;SDS011;3362;50.892;10.692;2022-08-19T08:54:38;5.32;;;2.78;;
6651;SDS011;3362;50.892;10.692;2022-08-19T08:57:07;3.30;;;2.67;;
6651;SDS011;3362;50.892;10.692;2022-08-19T08:59:39;3.65;;;2.97;;
6651;SDS011;3362;50.892;10.692;2022-08-19T09:02:05;5.05;;;2.90;;
6651;SDS011;3362;50.892;10.692;2022-08-19T09:04:33;7.63;;;2.70;;
6651;SDS011;3362;50.892;10.692;2022-08-19T09:07:02;2.83;;;2.58;;
6651;SDS011;3362;50.892;10.692;2022-08-19T09:09:32;5.00;;;3.00;;
6651;SDS011;3362;50.892;10.692;2022-08-19T09:12:02;5.45;;;3.13;;
6651;SDS011;3362;50.892;10.692;2022-08-19T09:14:32;2.55;;;2.15;;
6651;SDS011;3362;50.892;10.692;2022-08-19T09:17:01;32.72;;;5.78;;
6651;SDS011;3362;50.892;10.692;2022-08-19T09:19:28;5.20;;;2.17;;
6651;SDS011;3362;50.892;10.692;2022-08-19T09:21:54;4.28;;;2.33;;
6651;SDS011;3362;50.892;10.692;2022-08-19T09:24:21;2.55;;;2.00;;
6651;SDS011;3362;50.892;10.692;2022-08-19T09:26:47;5.43;;;1.48;;
6651;SDS011;3362;50.892;10.692;2022-08-19T09:29:13;2.65;;;1.27;;
6651;SDS011;3362;50.892;10.692;2022-08-19T09:31:39;1.80;;;1.70;;
6651;SDS011;3362;50.892;10.692;2022-08-19T09:34:07;1.40;;;1.20;;
6651;SDS011;3362;50.892;10.692;2022-08-19T09:36:33;1.92;;;1.35;;
6651;SDS011;3362;50.892;10.692;2022-08-19T09:39:01;1.08;;;1.00;;
6651;SDS011;3362;50.892;10.692;2022-08-19T09:41:27;1.23;;;1.13;;
6651;SDS011;3362;50.892;10.692;2022-08-19T09:43:54;2.50;;;1.60;;
6651;SDS011;3362;50.892;10.692;2022-08-19T09:46:21;1.15;;;1.05;;
6651;SDS011;3362;50.892;10.692;2022-08-19T09:48:48;1.52;;;1.42;;
6651;SDS011;3362;50.892;10.692;2022-08-19T09:51:18;1.05;;;0.95;;
6651;SDS011;3362;50.892;10.692;2022-08-19T09:53:45;1.98;;;1.40;;
6651;SDS011;3362;50.892;10.692;2022-08-19T09:56:14;1.55;;;1.00;;
6651;SDS011;3362;50.892;10.692;2022-08-19T09:58:41;1.83;;;1.13;;
6651;SDS011;3362;50.892;10.692;2022-08-19T10:01:07;2.00;;;1.45;;
6651;SDS011;3362;50.892;10.692;2022-08-19T10:03:35;1.80;;;1.13;;
6651;SDS011;3362;50.892;10.692;2022-08-19T10:06:03;2.50;;;1.00;;
6651;SDS011;3362;50.892;10.692;2022-08-19T10:08:31;2.30;;;0.95;;
6651;SDS011;3362;50.892;10.692;2022-08-19T10:10:59;1.50;;;1.25;;
6651;SDS011;3362;50.892;10.692;2022-08-19T10:13:27;1.25;;;1.05;;
6651;SDS011;3362;50.892;10.692;2022-08-19T10:15:53;1.75;;;1.00;;
6651;SDS011;3362;50.892;10.692;2022-08-19T10:18:21;2.22;;;1.42;;
6651;SDS011;3362;50.892;10.692;2022-08-19T10:20:48;1.23;;;1.00;;
6651;SDS011;3362;50.892;10.692;2022-08-19T10:23:15;1.90;;;1.25;;
6651;SDS011;3362;50.892;10.692;2022-08-19T10:25:43;3.00;;;1.30;;
6651;SDS011;3362;50.892;10.692;2022-08-19T10:28:09;1.92;;;1.30;;
6651;SDS011;3362;50.892;10.692;2022-08-19T10:30:37;2.55;;;1.10;;
6651;SDS011;3362;50.892;10.692;2022-08-19T10:33:03;1.27;;;0.90;;
6651;SDS011;3362;50.892;10.692;2022-08-19T10:35:30;1.10;;;0.95;;
6651;SDS011;3362;50.892;10.692;2022-08-19T10:37:56;1.30;;;1.20;;
6651;SDS011;3362;50.892;10.692;2022-08-19T10:40:24;1.67;;;0.88;;
6651;SDS011;3362;50.892;10.692;2022-08-19T10:42:51;1.98;;;0.95;;
6651;SDS011;3362;50.892;10.692;2022-08-19T10:45:18;3.10;;;1.10;;
6651;SDS011;3362;50.892;10.692;2022-08-19T10:47:47;0.70;;;0.70;;
6651;SDS011;3362;50.892;10.692;2022-08-19T10:50:13;1.45;;;1.00;;
6651;SDS011;3362;50.892;10.692;2022-08-19T10:52:57;5.40;;;1.10;;
6651;SDS011;3362;50.892;10.692;2022-08-19T10:55:23;2.17;;;1.02;;
6651;SDS011;3362;50.892;10.692;2022-08-19T10:58:12;3.22;;;1.25;;
6651;SDS011;3362;50.892;10.692;2022-08-19T11:00:39;0.88;;;0.82;;
6651;SDS011;3362;50.892;10.692;2022-08-19T11:03:06;2.60;;;2.40;;
6651;SDS011;3362;50.892;10.692;2022-08-19T11:05:32;1.20;;;1.10;;
6651;SDS011;3362;50.892;10.692;2022-08-19T11:07:59;1.75;;;1.10;;
6651;SDS011;3362;50.892;10.692;2022-08-19T11:10:25;1.63;;;1.17;;
6651;SDS011;3362;50.892;10.692;2022-08-19T11:12:51;1.60;;;1.30;;
6651;SDS011;3362;50.892;10.692;2022-08-19T11:15:21;2.28;;;1.17;;
6651;SDS011;3362;50.892;10.692;2022-08-19T11:17:48;1.30;;;0.98;;
6651;SDS011;3362;50.892;10.692;2022-08-19T11:20:14;1.48;;;0.98;;
6651;SDS011;3362;50.892;10.692;2022-08-19T11:22:41;1.42;;;1.30;;
6651;SDS011;3362;50.892;10.692;2022-08-19T11:25:07;1.48;;;1.10;;
6651;SDS011;3362;50.892;10.692;2022-08-19T11:27:37;1.02;;;0.82;;
6651;SDS011;3362;50.892;10.692;2022-08-19T11:30:04;1.30;;;1.20;;
6651;SDS011;3362;50.892;10.692;2022-08-19T11:32:33;1.85;;;1.45;;
6651;SDS011;3362;50.892;10.692;2022-08-19T11:34:59;3.42;;;1.30;;
6651;SDS011;3362;50.892;10.692;2022-08-19T11:37:26;3.45;;;1.30;;
6651;SDS011;3362;50.892;10.692;2022-08-19T11:39:52;2.00;;;1.10;;
6651;SDS011;3362;50.892;10.692;2022-08-19T11:42:18;1.08;;;0.98;;
6651;SDS011;3362;50.892;10.692;2022-08-19T11:45:07;1.42;;;0.95;;
6651;SDS011;3362;50.892;10.692;2022-08-19T11:47:36;1.52;;;0.88;;
6651;SDS011;3362;50.892;10.692;2022-08-19T11:50:03;2.97;;;1.05;;
6651;SDS011;3362;50.892;10.692;2022-08-19T11:52:30;1.25;;;1.15;;
6651;SDS011;3362;50.892;10.692;2022-08-19T11:54:57;0.82;;;0.80;;
6651;SDS011;3362;50.892;10.692;2022-08-19T11:57:23;1.20;;;1.10;;
6651;SDS011;3362;50.892;10.692;2022-08-19T11:59:49;1.70;;;0.98;;
6651;SDS011;3362;50.892;10.692;2022-08-19T12:02:16;2.92;;;1.25;;
6651;SDS011;3362;50.892;10.692;2022-08-19T12:04:43;5.82;;;1.60;;
6651;SDS011;3362;50.892;10.692;2022-08-19T12:07:09;5.07;;;1.85;;
6651;SDS011;3362;50.892;10.692;2022-08-19T12:09:36;1.58;;;1.10;;
6651;SDS011;3362;50.892;10.692;2022-08-19T12:12:02;1.38;;;0.95;;
6651;SDS011;3362;50.892;10.692;2022-08-19T12:14:29;1.65;;;1.30;;
6651;SDS011;3362;50.892;10.692;2022-08-19T12:16:57;1.10;;;1.00;;
6651;SDS011;3362;50.892;10.692;2022-08-19T12:19:23;1.30;;;1.20;;
6651;SDS011;3362;50.892;10.692;2022-08-19T12:21:51;3.38;;;1.17;;
6651;SDS011;3362;50.892;10.692;2022-08-19T12:24:20;1.30;;;1.20;;
6651;SDS011;3362;50.892;10.692;2022-08-19T12:26:48;1.20;;;1.00;;
6651;SDS011;3362;50.892;10.692;2022-08-19T12:29:14;1.15;;;0.88;;
6651;SDS011;3362;50.892;10.692;2022-08-19T12:31:40;0.93;;;0.85;;
6651;SDS011;3362;50.892;10.692;2022-08-19T12:34:06;1.30;;;0.80;;
6651;SDS011;3362;50.892;10.692;2022-08-19T12:36:33;1.30;;;0.85;;
6651;SDS011;3362;50.892;10.692;2022-08-19T12:39:00;2.30;;;1.20;;
6651;SDS011;3362;50.892;10.692;2022-08-19T12:41:27;1.45;;;1.00;;
6651;SDS011;3362;50.892;10.692;2022-08-19T12:43:53;1.30;;;1.20;;
6651;SDS011;3362;50.892;10.692;2022-08-19T12:46:19;2.78;;;0.75;;
6651;SDS011;3362;50.892;10.692;2022-08-19T12:48:46;2.50;;;1.33;;
6651;SDS011;3362;50.892;10.692;2022-08-19T12:51:14;1.38;;;1.27;;
6651;SDS011;3362;50.892;10.692;2022-08-19T12:53:40;1.40;;;1.00;;
6651;SDS011;3362;50.892;10.692;2022-08-19T12:56:09;2.33;;;1.20;;
6651;SDS011;3362;50.892;10.692;2022-08-19T12:58:36;2.45;;;1.30;;
6651;SDS011;3362;50.892;10.692;2022-08-19T13:01:06;5.18;;;1.70;;
6651;SDS011;3362;50.892;10.692;2022-08-19T13:03:32;8.32;;;1.40;;
6651;SDS011;3362;50.892;10.692;2022-08-19T13:05:59;3.22;;;1.42;;
6651;SDS011;3362;50.892;10.692;2022-08-19T13:08:25;4.63;;;1.20;;
6651;SDS011;3362;50.892;10.692;2022-08-19T13:10:51;4.60;;;0.90;;
6651;SDS011;3362;50.892;10.692;2022-08-19T13:13:19;0.88;;;0.88;;
6651;SDS011;3362;50.892;10.692;2022-08-19T13:15:46;3.15;;;1.05;;
6651;SDS011;3362;50.892;10.692;2022-08-19T13:18:12;4.35;;;1.23;;
6651;SDS011;3362;50.892;10.692;2022-08-19T13:20:39;1.92;;;1.00;;
6651;SDS011;3362;50.892;10.692;2022-08-19T13:23:06;2.47;;;1.08;;
6651;SDS011;3362;50.892;10.692;2022-08-19T13:25:32;1.35;;;1.05;;
6651;SDS011;3362;50.892;10.692;2022-08-19T13:27:59;2.97;;;1.27;;
6651;SDS011;3362;50.892;10.692;2022-08-19T13:30:26;2.58;;;1.40;;
6651;SDS011;3362;50.892;10.692;2022-08-19T13:33:10;4.82;;;1.20;;
6651;SDS011;3362;50.892;10.692;2022-08-19T13:35:36;2.40;;;1.10;;
6651;SDS011;3362;50.892;10.692;2022-08-19T13:38:03;0.98;;;0.90;;
6651;SDS011;3362;50.892;10.692;2022-08-19T13:40:30;1.27;;;1.20;;
6651;SDS011;3362;50.892;10.692;2022-08-19T13:42:58;1.63;;;1.20;;
6651;SDS011;3362;50.892;10.692;2022-08-19T13:45:24;2.28;;;1.08;;
6651;SDS011;3362;50.892;10.692;2022-08-19T13:47:53;2.65;;;1.20;;
6651;SDS011;3362;50.892;10.692;2022-08-19T13:50:22;1.23;;;0.90;;
6651;SDS011;3362;50.892;10.692;2022-08-19T13:52:49;1.10;;;1.00;;
6651;SDS011;3362;50.892;10.692;2022-08-19T13:55:16;1.20;;;1.10;;
6651;SDS011;3362;50.892;10.692;2022-08-19T13:57:42;1.27;;;1.15;;
6651;SDS011;3362;50.892;10.692;2022-08-19T14:00:09;3.15;;;1.27;;
6651;SDS011;3362;50.892;10.692;2022-08-19T14:02:36;1.17;;;1.00;;
6651;SDS011;3362;50.892;10.692;2022-08-19T14:05:08;1.20;;;1.10;;
6651;SDS011;3362;50.892;10.692;2022-08-19T14:07:35;1.25;;;1.15;;
6651;SDS011;3362;50.892;10.692;2022-08-19T14:10:01;1.63;;;1.20;;
6651;SDS011;3362;50.892;10.692;2022-08-19T14:12:27;1.55;;;1.30;;
6651;SDS011;3362;50.892;10.692;2022-08-19T14:14:53;2.05;;;1.42;;
6651;SDS011;3362;50.892;10.692;2022-08-19T14:17:20;1.52;;;1.13;;
6651;SDS011;3362;50.892;10.692;2022-08-19T14:19:46;1.58;;;1.10;;
6651;SDS011;3362;50.892;10.692;2022-08-19T14:22:13;2.33;;;1.48;;
6651;SDS011;3362;50.892;10.692;2022-08-19T14:24:40;1.33;;;1.23;;
6651;SDS011;3362;50.892;10.692;2022-08-19T14:27:06;1.42;;;1.20;;
6651;SDS011;3362;50.892;10.692;2022-08-19T14:29:32;2.45;;;1.23;;
6651;SDS011;3362;50.892;10.692;2022-08-19T14:31:59;2.00;;;1.30;;
6651;SDS011;3362;50.892;10.692;2022-08-19T14:34:25;1.10;;;1.00;;
6651;SDS011;3362;50.892;10.692;2022-08-19T14:36:51;2.75;;;1.40;;
6651;SDS011;3362;50.892;10.692;2022-08-19T14:39:19;2.60;;;1.15;;
6651;SDS011;3362;50.892;10.692;2022-08-19T14:41:45;1.13;;;1.10;;
6651;SDS011;3362;50.892;10.692;2022-08-19T14:44:12;1.52;;;1.20;;
6651;SDS011;3362;50.892;10.692;2022-08-19T14:46:38;1.73;;;1.10;;
6651;SDS011;3362;50.892;10.692;2022-08-19T14:49:05;1.15;;;1.05;;
6651;SDS011;3362;50.892;10.692;2022-08-19T14:51:32;3.17;;;1.17;;